createdAt,value
2018-09-26T00:01:05.401Z,100818.78
2018-09-26T00:03:39.554Z,100816.27
2018-09-26T00:06:06.766Z,100812.73
2018-09-26T00:08:34.023Z,100810.09
2018-09-26T00:11:01.215Z,100818.80
2018-09-26T00:13:28.340Z,100825.78
2018-09-26T00:15:55.503Z,100821.36
2018-09-26T00:18:22.669Z,100727.77
2018-09-26T00:20:49.808Z,100794.62
2018-09-26T00:23:17.013Z,100672.53
2018-09-26T00:25:44.232Z,100785.89
2018-09-26T00:28:11.438Z,100784.48
2018-09-26T00:30:38.571Z,100777.27
2018-09-26T00:33:05.756Z,100775.13
2018-09-26T00:35:33.832Z,100770.85
2018-09-26T00:38:01.042Z,100769.19
2018-09-26T00:40:28.293Z,100762.47
2018-09-26T00:42:56.353Z,100763.93
2018-09-26T00:45:23.655Z,100760.92
2018-09-26T00:47:51.009Z,100756.59
2018-09-26T00:50:18.117Z,100747.40
2018-09-26T00:52:45.341Z,100743.39
2018-09-26T00:55:12.451Z,100751.72
2018-09-26T00:57:39.710Z,100745.64
2018-09-26T01:00:07.675Z,100740.53
2018-09-26T01:02:34.908Z,100741.70
2018-09-26T01:05:02.441Z,100737.30
2018-09-26T01:07:29.647Z,100735.83
2018-09-26T01:09:56.885Z,100739.45
2018-09-26T01:12:24.171Z,100737.25
2018-09-26T01:14:51.381Z,100731.41
2018-09-26T01:17:18.570Z,100726.69
2018-09-26T01:19:45.719Z,100727.51
2018-09-26T01:22:12.926Z,100716.70
2018-09-26T01:24:40.220Z,100724.03
2018-09-26T01:27:07.638Z,100722.52
2018-09-26T01:29:34.809Z,100718.67
2018-09-26T01:32:02.099Z,100717.40
2018-09-26T01:34:29.357Z,100719.61
2018-09-26T01:36:56.733Z,100715.47
2018-09-26T01:39:24.217Z,100717.59
2018-09-26T01:41:51.402Z,100722.47
2018-09-26T01:44:18.545Z,100719.73
2018-09-26T01:46:45.971Z,100721.91
2018-09-26T01:49:13.237Z,100667.02
2018-09-26T01:51:40.401Z,100712.14
2018-09-26T01:54:07.638Z,100716.48
2018-09-26T01:56:34.846Z,100719.91
2018-09-26T01:59:02.096Z,100722.42
2018-09-26T02:01:29.340Z,100710.75
2018-09-26T02:03:56.599Z,100708.48
2018-09-26T02:06:23.884Z,100705.66
2018-09-26T02:08:51.150Z,100708.48
2018-09-26T02:11:18.394Z,100706.93
2018-09-26T02:13:45.842Z,100711.97
2018-09-26T02:16:13.137Z,100730.97
2018-09-26T02:18:40.277Z,100734.02
2018-09-26T02:21:07.507Z,100737.88
2018-09-26T02:23:34.721Z,100743.41
2018-09-26T02:26:01.943Z,100750.59
2018-09-26T02:28:29.148Z,100743.33
2018-09-26T02:30:56.312Z,100738.19
2018-09-26T02:33:23.827Z,100730.84
2018-09-26T02:35:51.054Z,100726.67
2018-09-26T02:38:18.216Z,100732.00
2018-09-26T02:40:45.430Z,100729.25
2018-09-26T02:43:12.598Z,100723.88
2018-09-26T02:45:39.759Z,100730.45
2018-09-26T02:48:06.945Z,100735.05
2018-09-26T02:50:34.172Z,100725.16
2018-09-26T02:53:01.372Z,100729.70
2018-09-26T02:55:28.531Z,100719.52
2018-09-26T02:57:55.685Z,100712.76
2018-09-26T03:00:22.814Z,100709.09
2018-09-26T03:02:49.972Z,100712.57
2018-09-26T03:05:17.091Z,100711.19
2018-09-26T03:07:44.312Z,100695.39
2018-09-26T03:10:11.424Z,100693.68
2018-09-26T03:12:38.574Z,100695.64
2018-09-26T03:15:05.698Z,100694.95
2018-09-26T03:17:32.860Z,100694.28
2018-09-26T03:20:00.044Z,100697.39
2018-09-26T03:22:27.163Z,100701.33
2018-09-26T03:24:54.302Z,100710.69
2018-09-26T03:27:21.408Z,100692.95
2018-09-26T03:29:48.530Z,100692.38
2018-09-26T03:32:15.764Z,100690.19
2018-09-26T03:34:42.955Z,100676.20
2018-09-26T03:37:10.081Z,100673.88
2018-09-26T03:39:37.282Z,100677.76
2018-09-26T03:42:04.438Z,100673.57
2018-09-26T03:44:31.604Z,100676.52
2018-09-26T03:46:58.733Z,100683.15
2018-09-26T03:49:25.955Z,100677.17
2018-09-26T03:51:53.106Z,100679.47
2018-09-26T03:54:20.227Z,100667.97
2018-09-26T03:56:47.358Z,100665.41
2018-09-26T03:59:14.502Z,100663.38
2018-09-26T04:01:41.645Z,100662.00
2018-09-26T04:04:08.990Z,100664.17
2018-09-26T04:06:36.213Z,100672.15
2018-09-26T04:09:05.124Z,100669.27
2018-09-26T04:11:32.260Z,100670.03
2018-09-26T04:13:59.410Z,100676.78
2018-09-26T04:16:26.598Z,100686.77
2018-09-26T04:18:53.725Z,100689.14
2018-09-26T04:21:20.874Z,100692.02
2018-09-26T04:23:47.989Z,100690.15
2018-09-26T04:26:15.233Z,100685.66
2018-09-26T04:28:42.396Z,100683.79
2018-09-26T04:31:09.692Z,100685.53
2018-09-26T04:33:36.898Z,100686.70
2018-09-26T04:36:04.297Z,100685.00
2018-09-26T04:38:31.492Z,100685.69
2018-09-26T04:40:58.646Z,100687.94
2018-09-26T04:43:26.557Z,100683.45
2018-09-26T04:45:53.723Z,100679.14
2018-09-26T04:48:20.997Z,100670.72
2018-09-26T04:50:48.135Z,100684.41
2018-09-26T04:53:19.236Z,100684.09
2018-09-26T04:55:46.699Z,100685.33
2018-09-26T04:58:13.881Z,100681.40
2018-09-26T05:00:41.181Z,100675.23
2018-09-26T05:03:08.979Z,100676.48
2018-09-26T05:05:36.137Z,100674.02
2018-09-26T05:08:03.484Z,100675.10
2018-09-26T05:10:31.091Z,100669.66
2018-09-26T05:12:58.231Z,100674.91
2018-09-26T05:15:25.398Z,100686.91
2018-09-26T05:17:52.530Z,100690.08
2018-09-26T05:20:19.649Z,100692.70
2018-09-26T05:22:46.871Z,100698.21
2018-09-26T05:25:13.979Z,100702.77
2018-09-26T05:27:41.129Z,100702.38
2018-09-26T05:30:08.308Z,100711.11
2018-09-26T05:32:35.548Z,100721.46
2018-09-26T05:35:02.756Z,100720.21
2018-09-26T05:37:29.922Z,100709.25
2018-09-26T05:39:57.137Z,100709.11
2018-09-26T05:42:24.915Z,100713.88
2018-09-26T05:44:52.063Z,100714.00
2018-09-26T05:47:19.238Z,100697.87
2018-09-26T05:49:47.051Z,100697.02
2018-09-26T05:52:14.224Z,100696.28
2018-09-26T05:54:41.499Z,100700.85
2018-09-26T05:57:08.859Z,100707.89
2018-09-26T05:59:36.167Z,100714.42
2018-09-26T06:02:03.273Z,100719.41
2018-09-26T06:04:30.541Z,100717.28
2018-09-26T06:06:57.751Z,100709.39
2018-09-26T06:09:25.003Z,100704.80
2018-09-26T06:11:52.358Z,100706.30
2018-09-26T06:14:20.063Z,100710.56
2018-09-26T06:16:47.386Z,100720.91
2018-09-26T06:19:14.768Z,100729.69
2018-09-26T06:21:42.045Z,100722.66
2018-09-26T06:24:09.641Z,100718.17
2018-09-26T06:26:37.014Z,100722.36
2018-09-26T06:29:04.293Z,100726.50
2018-09-26T06:31:31.578Z,100731.12
2018-09-26T06:33:58.943Z,100731.73
2018-09-26T06:36:26.200Z,100730.92
2018-09-26T06:38:53.563Z,100731.67
2018-09-26T06:41:20.893Z,100739.80
2018-09-26T06:43:48.271Z,100740.84
2018-09-26T06:46:15.519Z,100752.22
2018-09-26T06:48:42.770Z,100747.14
2018-09-26T06:51:10.105Z,100745.94
2018-09-26T06:53:37.375Z,100744.19
2018-09-26T06:56:04.783Z,100750.70
2018-09-26T06:58:32.182Z,100759.37
2018-09-26T07:00:59.497Z,100760.61
2018-09-26T07:03:26.726Z,100746.08
2018-09-26T07:05:53.898Z,100745.25
2018-09-26T07:08:21.266Z,100745.91
2018-09-26T07:10:48.414Z,100711.30
2018-09-26T07:13:15.936Z,100743.75
2018-09-26T07:15:43.100Z,100750.95
2018-09-26T07:18:10.291Z,100744.27
2018-09-26T07:20:38.027Z,100754.40
2018-09-26T07:23:05.329Z,100757.38
2018-09-26T07:25:32.498Z,100761.85
2018-09-26T07:28:00.141Z,100750.84
2018-09-26T07:30:27.394Z,100752.06
2018-09-26T07:32:54.631Z,100749.94
2018-09-26T07:35:21.747Z,100748.03
2018-09-26T07:37:48.986Z,100745.43
2018-09-26T07:40:16.272Z,100746.26
2018-09-26T07:42:43.497Z,100749.28
2018-09-26T07:45:10.881Z,100743.30
2018-09-26T07:47:38.271Z,100751.78
2018-09-26T07:50:05.788Z,100750.48
2018-09-26T07:52:33.242Z,100752.02
2018-09-26T07:55:00.637Z,100750.88
2018-09-26T07:57:27.806Z,100754.40
2018-09-26T07:59:55.201Z,100745.22
2018-09-26T08:02:22.439Z,100743.53
2018-09-26T08:04:49.651Z,100740.14
2018-09-26T08:07:16.944Z,100735.94
2018-09-26T08:09:44.179Z,100741.87
2018-09-26T08:12:11.415Z,100741.20
2018-09-26T08:14:38.803Z,100732.02
2018-09-26T08:17:05.971Z,100732.34
2018-09-26T08:19:33.386Z,100733.43
2018-09-26T08:22:00.621Z,100738.17
2018-09-26T08:24:27.890Z,100733.52
2018-09-26T08:26:55.194Z,100740.59
2018-09-26T08:29:22.465Z,100743.86
2018-09-26T08:31:49.850Z,100739.35
2018-09-26T08:34:17.157Z,100733.42
2018-09-26T08:36:44.356Z,100741.44
2018-09-26T08:39:12.886Z,100742.36
2018-09-26T08:41:40.171Z,100742.44
2018-09-26T08:44:07.634Z,100743.07
2018-09-26T08:46:34.840Z,100741.31
2018-09-26T08:49:02.088Z,100740.50
2018-09-26T08:51:29.374Z,100739.88
2018-09-26T08:53:56.605Z,100745.32
2018-09-26T08:56:23.845Z,100751.25
2018-09-26T08:58:51.072Z,100737.60
2018-09-26T09:01:24.117Z,100744.78
2018-09-26T09:03:51.441Z,100742.46
2018-09-26T09:06:18.827Z,100739.16
2018-09-26T09:08:46.015Z,100739.70
2018-09-26T09:11:13.363Z,100734.64
2018-09-26T09:13:40.549Z,100729.81
2018-09-26T09:16:08.077Z,100728.33
2018-09-26T09:18:35.325Z,100728.31
2018-09-26T09:21:03.819Z,100727.92
2018-09-26T09:23:31.463Z,100727.81
2018-09-26T09:25:58.676Z,100730.41
2018-09-26T09:28:25.924Z,100724.02
2018-09-26T09:30:53.254Z,100729.78
2018-09-26T09:33:20.620Z,100727.23
2018-09-26T09:35:47.928Z,100721.45
2018-09-26T09:38:15.294Z,100723.37
2018-09-26T09:40:42.528Z,100724.00
2018-09-26T09:43:09.939Z,100715.98
2018-09-26T09:45:37.454Z,100723.31
2018-09-26T09:48:04.703Z,100725.72
2018-09-26T09:50:31.962Z,100725.60
2018-09-26T09:52:59.253Z,100722.19
2018-09-26T09:55:26.547Z,100710.45
2018-09-26T09:57:53.924Z,100718.26
2018-09-26T10:00:25.706Z,100723.81
2018-09-26T10:02:53.138Z,100723.30
2018-09-26T10:05:20.241Z,100712.29
2018-09-26T10:07:47.443Z,100725.52
2018-09-26T10:10:14.653Z,100716.84
2018-09-26T10:12:41.852Z,100711.48
2018-09-26T10:15:09.099Z,100717.58
2018-09-26T10:17:36.414Z,100722.99
2018-09-26T10:20:03.749Z,100717.27
2018-09-26T10:22:30.965Z,100722.89
2018-09-26T10:24:58.292Z,100713.62
2018-09-26T10:27:25.451Z,100717.02
2018-09-26T10:29:52.806Z,100708.47
2018-09-26T10:32:20.043Z,100709.41
2018-09-26T10:34:47.376Z,100708.21
2018-09-26T10:37:14.616Z,100702.25
2018-09-26T10:39:41.857Z,100701.64
2018-09-26T10:42:09.591Z,100701.72
2018-09-26T10:44:36.860Z,100692.81
2018-09-26T10:47:04.433Z,100693.66
2018-09-26T10:49:32.454Z,100640.68
2018-09-26T10:51:59.675Z,100679.22
2018-09-26T10:54:26.864Z,100682.95
2018-09-26T10:56:54.070Z,100581.77
2018-09-26T10:59:21.368Z,100670.61
2018-09-26T11:01:48.813Z,100671.83
2018-09-26T11:04:16.716Z,100676.17
2018-09-26T11:06:43.907Z,100669.31
2018-09-26T11:09:11.494Z,100676.68
2018-09-26T11:11:39.144Z,100667.33
2018-09-26T11:14:06.448Z,100675.08
2018-09-26T11:16:33.754Z,100669.74
2018-09-26T11:19:01.339Z,100669.28
2018-09-26T11:21:28.498Z,100669.25
2018-09-26T11:23:55.871Z,100665.08
2018-09-26T11:26:23.400Z,100659.11
2018-09-26T11:28:50.664Z,100662.05
2018-09-26T11:31:17.942Z,100653.19
2018-09-26T11:33:45.756Z,100660.34
2018-09-26T11:36:12.908Z,100665.44
2018-09-26T11:38:40.131Z,100658.61
2018-09-26T11:41:07.458Z,100657.33
2018-09-26T11:43:34.662Z,100663.52
2018-09-26T11:46:01.938Z,100659.62
2018-09-26T11:48:29.192Z,100658.03
2018-09-26T11:51:02.919Z,100652.46
2018-09-26T11:53:30.555Z,100652.19
2018-09-26T11:55:58.967Z,100656.83
2018-09-26T11:58:26.423Z,100653.13
2018-09-26T12:00:53.782Z,100640.80
2018-09-26T12:03:22.117Z,100640.03
2018-09-26T12:05:49.323Z,100632.81
2018-09-26T12:08:16.621Z,100635.02
2018-09-26T12:10:43.811Z,100628.94
2018-09-26T12:13:11.084Z,100628.14
2018-09-26T12:15:38.275Z,100622.23
2018-09-26T12:18:05.587Z,100619.02
2018-09-26T12:20:32.798Z,100605.11
2018-09-26T12:23:00.072Z,100607.52
2018-09-26T12:25:27.357Z,100610.44
2018-09-26T12:27:54.667Z,100605.64
2018-09-26T12:30:22.041Z,100610.44
2018-09-26T12:32:49.186Z,100603.75
2018-09-26T12:35:16.416Z,100605.61
2018-09-26T12:37:43.720Z,100604.30
2018-09-26T12:40:10.977Z,100599.52
2018-09-26T12:42:39.248Z,100601.39
2018-09-26T12:45:06.472Z,100602.18
2018-09-26T12:47:33.816Z,100594.66
2018-09-26T12:50:01.140Z,100588.50
2018-09-26T12:52:28.412Z,100588.78
2018-09-26T12:54:56.442Z,100586.88
2018-09-26T12:57:23.820Z,100587.94
2018-09-26T12:59:51.276Z,100585.78
2018-09-26T13:02:18.657Z,100581.48
2018-09-26T13:04:45.879Z,100575.52
2018-09-26T13:07:13.211Z,100582.50
2018-09-26T13:09:40.646Z,100575.22
2018-09-26T13:12:08.009Z,100578.06
2018-09-26T13:14:35.271Z,100577.22
2018-09-26T13:17:02.768Z,100571.12
2018-09-26T13:19:30.223Z,100571.95
2018-09-26T13:21:57.886Z,100565.77
2018-09-26T13:24:25.209Z,100569.80
2018-09-26T13:26:52.434Z,100569.89
2018-09-26T13:29:19.703Z,100566.44
2018-09-26T13:31:47.101Z,100562.69
2018-09-26T13:34:14.398Z,100562.09
2018-09-26T13:36:41.601Z,100561.45
2018-09-26T13:39:09.021Z,100552.61
2018-09-26T13:41:36.253Z,100553.09
2018-09-26T13:44:03.547Z,100552.48
2018-09-26T13:46:30.803Z,100549.13
2018-09-26T13:48:58.066Z,100550.17
2018-09-26T13:51:25.343Z,100548.36
2018-09-26T13:53:52.678Z,100545.28
2018-09-26T13:56:19.907Z,100541.19
2018-09-26T13:58:47.192Z,100541.17
2018-09-26T14:01:14.411Z,100540.02
2018-09-26T14:03:42.429Z,100541.43
2018-09-26T14:06:09.706Z,100539.52
2018-09-26T14:08:37.343Z,100537.58
2018-09-26T14:11:04.612Z,100536.23
2018-09-26T14:13:31.868Z,100543.80
2018-09-26T14:15:59.169Z,100537.02
2018-09-26T14:18:26.465Z,100534.59
2018-09-26T14:20:53.686Z,100534.02
2018-09-26T14:23:21.045Z,100539.26
2018-09-26T14:25:48.659Z,100541.39
2018-09-26T14:28:15.933Z,100531.56
2018-09-26T14:30:43.383Z,100533.04
2018-09-26T14:33:11.030Z,100526.83
2018-09-26T14:35:38.264Z,100526.62
2018-09-26T14:38:05.576Z,100517.89
2018-09-26T14:40:32.770Z,100510.63
2018-09-26T14:43:00.274Z,100516.51
2018-09-26T14:45:27.606Z,100505.98
2018-09-26T14:47:55.581Z,100513.27
2018-09-26T14:50:23.162Z,100509.27
2018-09-26T14:52:50.329Z,100514.89
2018-09-26T14:55:17.460Z,100508.41
2018-09-26T14:57:45.082Z,100510.03
2018-09-26T15:00:13.221Z,100505.67
2018-09-26T15:02:40.503Z,100497.39
2018-09-26T15:05:07.947Z,100492.16
2018-09-26T15:07:35.431Z,100491.94
2018-09-26T15:10:02.618Z,100492.64
2018-09-26T15:12:29.942Z,100490.55
2018-09-26T15:14:57.126Z,100489.28
2018-09-26T15:17:24.563Z,100489.84
2018-09-26T15:19:51.784Z,100486.77
2018-09-26T15:22:19.063Z,100419.98
2018-09-26T15:24:46.393Z,100486.17
2018-09-26T15:27:13.625Z,100489.73
2018-09-26T15:29:40.830Z,100482.96
2018-09-26T15:32:08.340Z,100482.47
2018-09-26T15:34:35.712Z,100482.88
2018-09-26T15:37:03.136Z,100482.84
2018-09-26T15:39:30.406Z,100484.33
2018-09-26T15:41:57.711Z,100479.95
2018-09-26T15:44:25.090Z,100483.77
2018-09-26T15:46:53.833Z,100477.00
2018-09-26T15:49:21.072Z,100481.64
2018-09-26T15:51:48.477Z,100489.20
2018-09-26T15:54:15.808Z,100486.14
2018-09-26T15:56:42.997Z,100484.24
2018-09-26T15:59:10.597Z,100484.22
2018-09-26T16:01:37.824Z,100485.36
2018-09-26T16:04:05.061Z,100481.95
2018-09-26T16:06:32.281Z,100479.00
2018-09-26T16:08:59.562Z,100477.75
2018-09-26T16:11:27.352Z,100474.58
2018-09-26T16:13:54.527Z,100474.09
2018-09-26T16:16:21.757Z,100481.89
2018-09-26T16:18:49.110Z,100479.25
2018-09-26T16:21:16.396Z,100478.52
2018-09-26T16:23:43.645Z,100475.84
2018-09-26T16:26:10.954Z,100476.89
2018-09-26T16:28:38.117Z,100481.48
2018-09-26T16:31:05.641Z,100473.77
2018-09-26T16:33:32.949Z,100472.98
2018-09-26T16:36:00.343Z,100470.86
2018-09-26T16:38:27.753Z,100476.47
2018-09-26T16:40:55.078Z,100474.84
2018-09-26T16:43:22.396Z,100478.53
2018-09-26T16:45:50.134Z,100471.31
2018-09-26T16:48:17.345Z,100472.44
2018-09-26T16:50:44.531Z,100472.45
2018-09-26T16:53:11.766Z,100477.56
2018-09-26T16:55:39.026Z,100475.34
2018-09-26T16:58:06.274Z,100476.36
2018-09-26T17:00:33.627Z,100467.47
2018-09-26T17:03:01.038Z,100477.08
2018-09-26T17:05:28.389Z,100476.52
2018-09-26T17:07:55.632Z,100479.14
2018-09-26T17:10:22.891Z,100476.22
2018-09-26T17:12:50.096Z,100478.09
2018-09-26T17:15:17.363Z,100479.72
2018-09-26T17:17:44.605Z,100483.27
2018-09-26T17:20:11.948Z,100492.95
2018-09-26T17:22:39.373Z,100494.58
2018-09-26T17:25:06.707Z,100499.94
2018-09-26T17:27:34.021Z,100497.55
2018-09-26T17:30:01.179Z,100496.23
2018-09-26T17:32:28.407Z,100496.52
2018-09-26T17:34:55.641Z,100499.50
2018-09-26T17:37:22.953Z,100507.83
2018-09-26T17:39:50.114Z,100503.56
2018-09-26T17:42:17.561Z,100506.08
2018-09-26T17:44:44.902Z,100503.70
2018-09-26T17:47:12.438Z,100499.97
2018-09-26T17:49:39.744Z,100507.18
2018-09-26T17:52:06.943Z,100505.60
2018-09-26T17:54:34.299Z,100507.48
2018-09-26T17:57:01.468Z,100513.63
2018-09-26T17:59:28.717Z,100512.58
2018-09-26T18:01:56.136Z,100522.47
2018-09-26T18:04:23.449Z,100522.00
2018-09-26T18:06:58.249Z,100526.23
2018-09-26T18:09:25.456Z,100518.78
2018-09-26T18:11:52.604Z,100526.52
2018-09-26T18:14:19.854Z,100529.98
2018-09-26T18:16:47.094Z,100529.99
2018-09-26T18:19:14.293Z,100522.23
2018-09-26T18:21:41.487Z,100520.55
2018-09-26T18:24:08.872Z,100520.48
2018-09-26T18:26:36.126Z,100525.77
2018-09-26T18:29:03.515Z,100521.20
2018-09-26T18:31:30.864Z,100521.81
2018-09-26T18:33:58.163Z,100521.38
2018-09-26T18:36:25.570Z,100520.34
2018-09-26T18:38:52.995Z,100512.61
2018-09-26T18:41:20.154Z,100514.19
2018-09-26T18:43:47.472Z,100516.33
2018-09-26T18:46:16.464Z,100522.75
2018-09-26T18:48:43.746Z,100516.45
2018-09-26T18:51:11.447Z,100519.58
2018-09-26T18:53:38.796Z,100520.30
2018-09-26T18:56:06.163Z,100526.97
2018-09-26T18:58:33.417Z,100524.86
2018-09-26T19:01:00.696Z,100538.38
2018-09-26T19:03:28.039Z,100539.13
2018-09-26T19:05:55.370Z,100534.19
2018-09-26T19:08:22.659Z,100531.05
2018-09-26T19:10:49.931Z,100534.56
2018-09-26T19:13:17.106Z,100536.47
2018-09-26T19:15:44.341Z,100539.98
2018-09-26T19:18:11.619Z,100545.05
2018-09-26T19:20:39.077Z,100543.96
2018-09-26T19:23:06.372Z,100549.57
2018-09-26T19:25:33.672Z,100541.25
2018-09-26T19:28:00.999Z,100542.80
2018-09-26T19:30:28.409Z,100550.17
2018-09-26T19:32:55.784Z,100550.68
2018-09-26T19:35:23.092Z,100546.31
2018-09-26T19:37:50.411Z,100551.92
2018-09-26T19:40:17.754Z,100520.62
2018-09-26T19:42:44.930Z,100552.47
2018-09-26T19:45:12.290Z,100551.66
2018-09-26T19:47:39.465Z,100552.39
2018-09-26T19:50:06.762Z,100556.98
2018-09-26T19:52:34.040Z,100548.51
2018-09-26T19:55:01.414Z,100546.63
2018-09-26T19:57:29.055Z,100550.61
2018-09-26T19:59:56.385Z,100552.47
2018-09-26T20:02:23.624Z,100551.47
2018-09-26T20:04:50.867Z,100231.84
2018-09-26T20:07:18.074Z,100550.20
2018-09-26T20:09:45.267Z,100553.80
2018-09-26T20:12:12.495Z,100552.35
2018-09-26T20:14:39.697Z,100556.47
2018-09-26T20:17:06.910Z,100558.97
2018-09-26T20:19:35.207Z,100555.25
2018-09-26T20:22:02.483Z,100562.64
2018-09-26T20:24:30.692Z,100560.48
2018-09-26T20:26:57.957Z,100559.92
2018-09-26T20:29:25.388Z,100559.90
2018-09-26T20:31:52.665Z,100560.68
2018-09-26T20:34:19.879Z,100558.66
2018-09-26T20:36:47.094Z,100557.70
2018-09-26T20:39:14.354Z,100556.45
2018-09-26T20:41:41.635Z,100555.64
2018-09-26T20:44:09.078Z,100555.98
2018-09-26T20:46:36.329Z,100556.84
2018-09-26T20:49:03.562Z,100552.53
2018-09-26T20:51:31.120Z,100555.23
2018-09-26T20:53:58.291Z,100558.94
2018-09-26T20:56:25.625Z,100563.92
2018-09-26T20:58:52.835Z,100569.85
2018-09-26T21:01:20.096Z,100564.67
2018-09-26T21:03:47.283Z,100563.11
2018-09-26T21:06:14.489Z,100560.56
2018-09-26T21:08:41.789Z,100556.34
2018-09-26T21:11:09.014Z,100558.36
2018-09-26T21:13:36.258Z,100551.67
2018-09-26T21:16:03.443Z,100553.63
2018-09-26T21:18:30.702Z,100555.48
2018-09-26T21:20:58.514Z,100552.95
2018-09-26T21:23:25.781Z,100558.42
2018-09-26T21:25:52.949Z,100552.59
2018-09-26T21:28:20.169Z,100554.21
2018-09-26T21:30:47.482Z,100552.05
2018-09-26T21:33:14.739Z,100545.02
2018-09-26T21:35:41.916Z,100545.23
2018-09-26T21:38:09.109Z,100539.97
2018-09-26T21:40:36.243Z,100542.92
2018-09-26T21:43:03.434Z,100546.17
2018-09-26T21:45:30.633Z,100541.95
2018-09-26T21:47:57.958Z,100546.70
2018-09-26T21:50:25.157Z,100539.89
2018-09-26T21:52:52.393Z,100541.48
2018-09-26T21:55:19.576Z,100539.30
2018-09-26T21:57:46.745Z,100538.00
2018-09-26T22:00:14.186Z,100532.58
2018-09-26T22:02:41.456Z,100536.59
2018-09-26T22:05:08.735Z,100540.89
2018-09-26T22:07:36.029Z,100542.32
2018-09-26T22:10:03.317Z,100539.70
2018-09-26T22:12:30.674Z,100536.06
2018-09-26T22:14:57.932Z,100541.75
2018-09-26T22:17:25.276Z,100535.07
2018-09-26T22:19:52.535Z,100539.36
2018-09-26T22:22:19.765Z,100541.12
2018-09-26T22:24:47.061Z,100538.33
2018-09-26T22:27:14.408Z,100536.50
2018-09-26T22:29:41.665Z,100539.32
2018-09-26T22:32:08.859Z,100548.22
2018-09-26T22:34:36.153Z,100551.69
2018-09-26T22:37:03.314Z,100549.47
2018-09-26T22:39:30.653Z,100550.00
2018-09-26T22:41:57.828Z,100553.51
2018-09-26T22:44:25.055Z,100559.81
2018-09-26T22:46:52.265Z,100556.89
2018-09-26T22:49:19.670Z,100553.67
2018-09-26T22:51:46.927Z,100541.77
2018-09-26T22:54:14.249Z,100545.08
2018-09-26T22:56:41.919Z,100547.41
2018-09-26T22:59:09.337Z,100549.83
2018-09-26T23:01:36.553Z,100545.02
2018-09-26T23:04:03.801Z,100549.47
2018-09-26T23:06:31.069Z,100550.28
2018-09-26T23:08:58.299Z,100550.93
2018-09-26T23:11:25.646Z,100548.95
2018-09-26T23:13:52.826Z,100541.02
2018-09-26T23:16:20.460Z,100546.27
2018-09-26T23:18:47.844Z,100542.53
2018-09-26T23:21:15.129Z,100538.54
2018-09-26T23:23:42.801Z,100537.86
2018-09-26T23:26:10.012Z,100540.49
2018-09-26T23:28:37.339Z,100544.09
2018-09-26T23:31:04.791Z,100546.86
2018-09-26T23:33:32.291Z,100549.81
2018-09-26T23:35:59.667Z,100548.21
2018-09-26T23:38:27.006Z,100548.52
2018-09-26T23:40:54.438Z,100554.34
2018-09-26T23:43:22.051Z,100545.48
2018-09-26T23:45:49.497Z,100526.27
2018-09-26T23:48:16.811Z,100549.34
2018-09-26T23:50:44.094Z,100553.08
2018-09-26T23:53:11.265Z,100550.75
2018-09-26T23:55:38.523Z,100546.08
2018-09-26T23:58:05.764Z,100546.41
